createdAt,value
2023-03-20T00:02:20.843Z,17.17
2023-03-20T00:04:47.893Z,19.60
2023-03-20T00:07:14.890Z,16.80
2023-03-20T00:09:42.545Z,12.93
2023-03-20T00:12:15.734Z,15.83
2023-03-20T00:14:42.892Z,15.20
2023-03-20T00:17:18.436Z,16.90
2023-03-20T00:19:46.255Z,13.60
2023-03-20T00:22:13.188Z,12.83
2023-03-20T00:24:40.149Z,13.67
2023-03-20T00:27:07.507Z,16.37
2023-03-20T00:29:34.749Z,12.47
2023-03-20T00:32:01.740Z,14.00
2023-03-20T00:34:29.781Z,16.57
2023-03-20T00:36:58.274Z,12.67
2023-03-20T00:39:25.694Z,14.63
2023-03-20T00:41:58.672Z,13.80
2023-03-20T00:44:28.412Z,14.57
2023-03-20T00:46:58.525Z,15.47
2023-03-20T00:49:28.707Z,14.10
2023-03-20T00:51:56.512Z,15.10
2023-03-20T00:54:25.491Z,15.05
2023-03-20T00:57:00.334Z,17.13
2023-03-20T00:59:32.046Z,16.07
2023-03-20T01:02:01.480Z,17.55
2023-03-20T01:04:37.489Z,15.07
2023-03-20T01:07:06.309Z,15.50
2023-03-20T01:09:33.439Z,15.07
2023-03-20T01:12:01.574Z,14.77
2023-03-20T01:14:28.752Z,15.73
2023-03-20T01:16:56.110Z,16.77
2023-03-20T01:19:23.216Z,16.47
2023-03-20T01:21:50.883Z,15.80
2023-03-20T01:24:17.940Z,18.23
2023-03-20T01:26:46.432Z,19.30
2023-03-20T01:29:22.397Z,17.90
2023-03-20T01:31:51.448Z,17.67
2023-03-20T01:34:21.295Z,21.27
2023-03-20T01:36:57.688Z,15.47
2023-03-20T01:39:35.200Z,12.55
2023-03-20T01:42:05.935Z,15.67
2023-03-20T01:44:36.099Z,15.00
2023-03-20T01:47:11.713Z,13.83
2023-03-20T01:50:33.135Z,15.13
2023-03-20T01:53:19.301Z,17.67
2023-03-20T01:55:56.269Z,14.57
2023-03-20T01:58:32.458Z,15.93
2023-03-20T02:01:00.316Z,15.63
2023-03-20T02:03:27.666Z,13.57
2023-03-20T02:06:08.586Z,13.63
2023-03-20T02:08:54.383Z,17.73
2023-03-20T02:11:25.591Z,15.50
2023-03-20T02:13:55.473Z,14.77
2023-03-20T02:16:24.328Z,15.70
2023-03-20T02:19:08.012Z,16.17
2023-03-20T02:21:44.228Z,14.83
2023-03-20T02:24:15.540Z,17.03
2023-03-20T02:27:08.678Z,16.97
2023-03-20T02:30:07.480Z,17.10
2023-03-20T02:32:39.861Z,19.37
2023-03-20T02:35:35.093Z,15.93
2023-03-20T02:38:21.193Z,13.63
2023-03-20T02:41:04.183Z,14.82
2023-03-20T02:44:01.409Z,14.70
2023-03-20T02:46:34.647Z,15.20
2023-03-20T02:49:16.502Z,12.33
2023-03-20T02:52:11.869Z,18.73
2023-03-20T02:54:55.066Z,15.87
2023-03-20T02:57:44.485Z,15.73
2023-03-20T03:00:21.212Z,17.07
2023-03-20T03:02:55.441Z,15.20
2023-03-20T03:05:31.222Z,15.63
2023-03-20T03:08:01.198Z,16.77
2023-03-20T03:10:58.325Z,14.43
2023-03-20T03:13:29.509Z,15.73
2023-03-20T03:16:04.434Z,15.77
2023-03-20T03:18:34.648Z,15.37
2023-03-20T03:21:06.885Z,17.63
2023-03-20T03:23:44.785Z,15.60
2023-03-20T03:26:36.385Z,16.27
2023-03-20T03:29:11.904Z,14.83
2023-03-20T03:31:39.445Z,15.57
2023-03-20T03:34:09.361Z,15.20
2023-03-20T03:36:41.524Z,14.07
2023-03-20T03:39:25.013Z,14.87
2023-03-20T03:41:52.835Z,17.53
2023-03-20T03:44:35.652Z,14.77
2023-03-20T03:47:32.462Z,16.63
2023-03-20T03:50:06.312Z,14.93
2023-03-20T03:52:35.183Z,15.53
2023-03-20T03:55:14.913Z,17.23
2023-03-20T03:58:04.896Z,16.17
2023-03-20T04:00:34.250Z,15.83
2023-03-20T04:03:01.637Z,16.73
2023-03-20T04:05:31.944Z,15.73
2023-03-20T04:08:01.514Z,19.23
2023-03-20T04:10:28.607Z,18.87
2023-03-20T04:12:55.577Z,20.47
2023-03-20T04:15:22.568Z,22.50
2023-03-20T04:17:49.810Z,19.60
2023-03-20T04:20:17.866Z,20.63
2023-03-20T04:22:46.717Z,16.93
2023-03-20T04:25:22.502Z,19.13
2023-03-20T04:27:52.727Z,20.08
2023-03-20T04:30:53.639Z,20.17
2023-03-20T04:33:33.703Z,22.07
2023-03-20T04:36:26.917Z,20.25
2023-03-20T04:38:57.582Z,21.17
2023-03-20T04:41:25.759Z,15.95
2023-03-20T04:43:55.772Z,20.20
2023-03-20T04:46:23.287Z,23.00
2023-03-20T04:48:51.079Z,20.00
2023-03-20T04:51:19.057Z,20.58
2023-03-20T04:53:49.965Z,19.38
2023-03-20T04:56:17.612Z,19.88
2023-03-20T04:58:46.596Z,19.00
2023-03-20T05:01:14.683Z,16.17
2023-03-20T05:03:42.113Z,17.92
2023-03-20T05:06:09.850Z,19.73
2023-03-20T05:08:40.290Z,21.58
2023-03-20T05:11:08.370Z,20.05
2023-03-20T05:13:55.916Z,20.20
2023-03-20T05:16:41.271Z,19.10
2023-03-20T05:19:31.268Z,19.08
2023-03-20T05:22:04.375Z,19.17
2023-03-20T05:24:51.725Z,16.27
2023-03-20T05:27:37.645Z,24.55
2023-03-20T05:30:24.581Z,22.00
2023-03-20T05:32:52.545Z,19.17
2023-03-20T05:35:29.093Z,19.77
2023-03-20T05:38:05.836Z,22.77
2023-03-20T05:41:00.914Z,16.88
2023-03-20T05:43:37.320Z,22.85
2023-03-20T05:46:33.013Z,20.00
2023-03-20T05:49:09.523Z,20.30
2023-03-20T05:51:57.125Z,21.30
2023-03-20T05:54:31.738Z,16.17
2023-03-20T05:57:08.590Z,18.83
2023-03-20T05:59:50.643Z,18.33
2023-03-20T06:02:47.762Z,20.98
2023-03-20T06:05:37.909Z,17.75
2023-03-20T06:08:05.837Z,22.65
2023-03-20T06:10:33.204Z,15.07
2023-03-20T06:13:01.336Z,17.20
2023-03-20T06:15:29.852Z,16.27
2023-03-20T06:18:05.804Z,17.55
2023-03-20T06:20:36.065Z,15.68
2023-03-20T06:23:04.840Z,15.48
2023-03-20T06:25:31.865Z,13.85
2023-03-20T06:27:59.493Z,17.17
2023-03-20T06:30:27.190Z,13.68
2023-03-20T06:32:55.048Z,14.32
2023-03-20T06:35:25.174Z,14.05
2023-03-20T06:37:52.171Z,15.15
2023-03-20T06:40:23.633Z,15.77
2023-03-20T06:42:51.290Z,17.13
2023-03-20T06:45:19.592Z,16.80
2023-03-20T06:48:01.131Z,14.05
2023-03-20T06:50:28.596Z,15.82
2023-03-20T06:52:59.384Z,17.00
2023-03-20T06:55:32.077Z,12.35
2023-03-20T06:57:59.117Z,17.30
2023-03-20T07:00:27.468Z,17.40
2023-03-20T07:02:54.627Z,14.38
2023-03-20T07:05:22.406Z,12.95
2023-03-20T07:07:49.664Z,10.93
2023-03-20T07:10:17.435Z,12.07
2023-03-20T07:12:51.085Z,12.63
2023-03-20T07:15:19.135Z,13.07
2023-03-20T07:17:46.314Z,11.48
2023-03-20T07:20:14.335Z,12.43
2023-03-20T07:22:42.060Z,9.32
2023-03-20T07:25:39.450Z,11.52
2023-03-20T07:28:09.054Z,8.20
2023-03-20T07:30:38.824Z,10.18
2023-03-20T07:33:06.577Z,10.10
2023-03-20T07:35:35.047Z,10.50
2023-03-20T07:38:02.797Z,7.60
2023-03-20T07:40:29.987Z,8.05
2023-03-20T07:43:02.075Z,9.63
2023-03-20T07:45:50.216Z,11.63
2023-03-20T07:48:19.711Z,8.10
2023-03-20T07:50:46.730Z,14.18
2023-03-20T07:53:13.878Z,12.77
2023-03-20T07:55:40.873Z,11.20
2023-03-20T07:58:10.612Z,12.98
2023-03-20T08:00:37.895Z,12.95
2023-03-20T08:03:05.450Z,14.40
2023-03-20T08:05:33.266Z,9.40
2023-03-20T08:08:00.461Z,13.02
2023-03-20T08:10:27.813Z,11.43
2023-03-20T08:12:55.146Z,11.38
2023-03-20T08:15:22.446Z,11.98
2023-03-20T08:17:49.780Z,13.40
2023-03-20T08:20:17.606Z,16.05
2023-03-20T08:22:45.229Z,13.40
2023-03-20T08:25:12.576Z,11.05
2023-03-20T08:27:40.250Z,14.18
2023-03-20T08:30:09.039Z,10.40
2023-03-20T08:32:36.696Z,14.60
2023-03-20T08:35:03.770Z,10.85
2023-03-20T08:37:30.771Z,14.15
2023-03-20T08:39:57.749Z,14.43
2023-03-20T08:42:24.784Z,12.13
2023-03-20T08:44:52.074Z,13.98
2023-03-20T08:47:19.741Z,22.02
2023-03-20T08:49:47.215Z,18.10
2023-03-20T08:52:14.207Z,17.58
2023-03-20T08:54:41.233Z,15.98
2023-03-20T08:57:08.221Z,16.27
2023-03-20T08:59:35.670Z,15.68
2023-03-20T09:02:02.737Z,11.63
2023-03-20T09:04:29.990Z,11.10
2023-03-20T09:06:57.163Z,11.20
2023-03-20T09:09:29.687Z,9.30
2023-03-20T09:12:01.793Z,11.48
2023-03-20T09:14:29.431Z,10.77
2023-03-20T09:16:56.474Z,9.50
2023-03-20T09:19:23.522Z,14.52
2023-03-20T09:21:50.622Z,12.68
2023-03-20T09:24:17.590Z,13.55
2023-03-20T09:26:44.538Z,13.30
2023-03-20T09:29:11.732Z,13.27
2023-03-20T09:31:38.780Z,14.60
2023-03-20T09:34:06.409Z,13.05
2023-03-20T09:36:33.803Z,11.82
2023-03-20T09:39:01.041Z,13.15
2023-03-20T09:41:28.877Z,12.45
2023-03-20T09:44:09.741Z,13.73
2023-03-20T09:47:19.699Z,11.38
2023-03-20T09:50:05.394Z,8.65
2023-03-20T09:52:41.087Z,9.38
2023-03-20T09:55:26.614Z,12.23
2023-03-20T09:57:58.498Z,12.68
2023-03-20T10:00:28.975Z,12.27
2023-03-20T10:03:02.229Z,9.80
2023-03-20T10:05:38.196Z,10.85
2023-03-20T10:08:07.856Z,13.80
2023-03-20T10:10:53.256Z,10.25
2023-03-20T10:13:38.357Z,8.50
2023-03-20T10:16:49.521Z,9.55
2023-03-20T10:19:21.578Z,8.60
2023-03-20T10:21:54.103Z,12.57
2023-03-20T10:24:29.033Z,10.63
2023-03-20T10:27:00.938Z,11.63
2023-03-20T10:29:45.571Z,9.40
2023-03-20T10:32:28.718Z,11.02
2023-03-20T10:35:13.860Z,9.05
2023-03-20T10:38:02.439Z,13.07
2023-03-20T10:40:36.615Z,12.38
2023-03-20T10:43:14.885Z,12.38
2023-03-20T10:45:46.772Z,11.20
2023-03-20T10:48:37.452Z,9.07
2023-03-20T10:51:04.989Z,11.40
2023-03-20T10:53:35.140Z,9.70
2023-03-20T10:56:16.782Z,11.38
2023-03-20T10:58:47.374Z,11.27
2023-03-20T11:01:14.851Z,9.70
2023-03-20T11:03:41.983Z,8.45
2023-03-20T11:06:28.949Z,10.80
2023-03-20T11:08:56.023Z,10.43
2023-03-20T11:11:28.976Z,13.50
2023-03-20T11:13:56.344Z,9.70
2023-03-20T11:16:27.368Z,11.35
2023-03-20T11:18:55.126Z,12.23
2023-03-20T11:21:29.039Z,13.32
2023-03-20T11:23:56.492Z,8.40
2023-03-20T11:26:42.170Z,13.40
2023-03-20T11:29:29.634Z,9.15
2023-03-20T11:34:33.613Z,11.38
2023-03-20T11:37:10.591Z,8.25
2023-03-20T11:39:42.665Z,7.93
2023-03-20T11:42:24.739Z,10.18
2023-03-20T11:45:18.193Z,9.75
2023-03-20T11:47:51.013Z,9.85
2023-03-20T11:50:37.313Z,11.60
2023-03-20T11:53:20.005Z,10.68
2023-03-20T11:56:03.836Z,11.57
2023-03-20T11:58:31.231Z,10.88
2023-03-20T12:00:58.582Z,8.35
2023-03-20T12:04:02.604Z,8.95
2023-03-20T12:06:46.858Z,10.52
2023-03-20T12:09:32.079Z,9.35
2023-03-20T12:12:37.149Z,12.27
2023-03-20T12:15:13.148Z,9.65
2023-03-20T12:17:57.004Z,9.93
2023-03-20T12:20:45.474Z,14.18
2023-03-20T12:23:29.189Z,12.60
2023-03-20T12:26:04.273Z,11.75
2023-03-20T12:28:37.275Z,11.88
2023-03-20T12:31:19.507Z,10.82
2023-03-20T12:33:55.010Z,10.02
2023-03-20T12:36:31.459Z,10.50
2023-03-20T12:38:59.490Z,11.27
2023-03-20T12:41:38.936Z,11.63
2023-03-20T12:44:08.862Z,9.23
2023-03-20T12:46:41.792Z,9.77
2023-03-20T12:49:29.420Z,9.93
2023-03-20T12:52:08.546Z,10.45
2023-03-20T12:55:06.294Z,11.52
2023-03-20T12:57:47.520Z,11.75
2023-03-20T13:00:39.105Z,10.27
2023-03-20T13:03:34.030Z,10.45
2023-03-20T13:06:22.054Z,10.02
2023-03-20T13:09:14.523Z,9.00
2023-03-20T13:11:52.282Z,11.05
2023-03-20T13:14:37.504Z,10.13
2023-03-20T13:17:28.860Z,14.57
2023-03-20T13:20:19.956Z,11.35
2023-03-20T13:22:50.797Z,13.13
2023-03-20T13:25:54.121Z,9.48
2023-03-20T13:28:40.395Z,9.25
2023-03-20T13:31:07.357Z,10.48
2023-03-20T13:33:52.592Z,12.25
2023-03-20T13:36:40.096Z,15.15
2023-03-20T13:39:20.716Z,12.35
2023-03-20T13:41:49.512Z,11.93
2023-03-20T13:44:21.109Z,12.20
2023-03-20T13:46:52.161Z,12.88
2023-03-20T13:49:51.664Z,9.18
2023-03-20T13:52:26.136Z,12.00
2023-03-20T13:55:14.630Z,13.43
2023-03-20T13:58:09.052Z,11.73
2023-03-20T14:00:41.630Z,12.38
2023-03-20T14:03:32.457Z,10.63
2023-03-20T14:05:59.516Z,12.55
2023-03-20T14:08:32.678Z,12.23
2023-03-20T14:11:21.427Z,9.40
2023-03-20T14:13:52.234Z,9.50
2023-03-20T14:16:20.396Z,9.88
2023-03-20T14:19:12.200Z,11.30
2023-03-20T14:21:45.134Z,9.98
2023-03-20T14:24:16.014Z,10.02
2023-03-20T14:26:43.794Z,12.05
2023-03-20T14:29:10.670Z,11.85
2023-03-20T14:31:42.086Z,11.20
2023-03-20T14:34:09.609Z,12.60
2023-03-20T14:36:54.652Z,9.60
2023-03-20T14:39:43.846Z,8.48
2023-03-20T14:42:32.380Z,12.45
2023-03-20T14:45:16.106Z,13.05
2023-03-20T14:47:43.447Z,10.75
2023-03-20T14:50:18.887Z,13.70
2023-03-20T14:53:05.602Z,11.23
2023-03-20T14:55:47.164Z,14.17
2023-03-20T14:58:43.801Z,12.05
2023-03-20T15:01:39.670Z,12.80
2023-03-20T15:04:21.549Z,13.02
2023-03-20T15:06:54.013Z,11.80
2023-03-20T15:09:24.647Z,13.07
2023-03-20T15:11:53.902Z,14.43
2023-03-20T15:14:26.488Z,18.58
2023-03-20T15:17:01.245Z,16.15
2023-03-20T15:19:28.874Z,14.18
2023-03-20T15:21:56.558Z,13.25
2023-03-20T15:24:30.353Z,14.23
2023-03-20T15:27:02.118Z,12.25
2023-03-20T15:29:31.235Z,15.93
2023-03-20T15:32:13.329Z,12.98
2023-03-20T15:34:42.636Z,13.23
2023-03-20T15:37:16.243Z,13.57
2023-03-20T15:39:49.258Z,12.30
2023-03-20T15:42:19.728Z,14.05
2023-03-20T15:44:48.851Z,14.32
2023-03-20T15:47:20.997Z,15.02
2023-03-20T15:49:57.100Z,12.63
2023-03-20T15:52:43.803Z,15.40
2023-03-20T15:55:19.997Z,13.27
2023-03-20T15:57:50.395Z,13.82
2023-03-20T16:00:27.418Z,16.25
2023-03-20T16:02:55.185Z,17.00
2023-03-20T16:05:26.458Z,13.35
2023-03-20T16:07:54.384Z,13.05
2023-03-20T16:10:29.254Z,15.10
2023-03-20T16:12:56.994Z,14.85
2023-03-20T16:15:27.839Z,12.88
2023-03-20T16:17:57.753Z,12.57
2023-03-20T16:20:30.002Z,14.35
2023-03-20T16:23:03.271Z,12.18
2023-03-20T16:25:30.431Z,12.07
2023-03-20T16:27:58.654Z,10.70
2023-03-20T16:30:30.790Z,15.35
2023-03-20T16:33:15.898Z,10.57
2023-03-20T16:35:49.233Z,12.70
2023-03-20T16:38:29.375Z,17.30
2023-03-20T16:41:14.318Z,13.35
2023-03-20T16:43:41.401Z,10.00
2023-03-20T16:46:08.637Z,12.88
2023-03-20T16:48:40.147Z,15.35
2023-03-20T16:51:29.458Z,12.35
2023-03-20T16:54:04.106Z,11.02
2023-03-20T16:56:40.553Z,10.52
2023-03-20T16:59:09.281Z,13.15
2023-03-20T17:01:41.361Z,15.25
2023-03-20T17:04:19.042Z,15.20
2023-03-20T17:06:52.774Z,14.90
2023-03-20T17:09:26.452Z,16.13
2023-03-20T17:12:18.302Z,14.68
2023-03-20T17:14:45.746Z,14.73
2023-03-20T17:17:19.536Z,11.90
2023-03-20T17:19:49.808Z,11.20
2023-03-20T17:22:22.352Z,11.85
2023-03-20T17:24:50.605Z,11.50
2023-03-20T17:27:19.233Z,11.63
2023-03-20T17:29:47.529Z,12.88
2023-03-20T17:32:20.355Z,11.27
2023-03-20T17:34:47.311Z,11.98
2023-03-20T17:37:29.825Z,10.88
2023-03-20T17:39:57.417Z,14.15
2023-03-20T17:42:26.976Z,10.77
2023-03-20T17:44:54.022Z,9.15
2023-03-20T17:47:26.661Z,9.77
2023-03-20T17:49:54.782Z,11.75
2023-03-20T17:52:27.463Z,9.05
2023-03-20T17:54:55.103Z,9.90
2023-03-20T17:57:31.441Z,9.40
2023-03-20T17:59:58.724Z,7.70
2023-03-20T18:02:26.242Z,10.15
2023-03-20T18:04:53.284Z,9.05
2023-03-20T18:07:21.175Z,10.20
2023-03-20T18:09:49.319Z,11.95
2023-03-20T18:12:18.478Z,10.50
2023-03-20T18:14:46.954Z,8.57
2023-03-20T18:17:15.792Z,10.70
2023-03-20T18:19:43.455Z,8.18
2023-03-20T18:22:10.723Z,10.30
2023-03-20T18:24:40.111Z,10.23
2023-03-20T18:27:08.048Z,8.35
2023-03-20T18:29:35.050Z,9.52
2023-03-20T18:32:02.005Z,8.18
2023-03-20T18:34:28.961Z,8.50
2023-03-20T18:36:56.185Z,8.68
2023-03-20T18:39:24.699Z,7.60
2023-03-20T18:41:52.005Z,8.88
2023-03-20T18:44:19.247Z,10.80
2023-03-20T18:46:46.497Z,7.70
2023-03-20T18:49:17.671Z,11.25
2023-03-20T18:51:45.552Z,9.10
2023-03-20T18:54:12.800Z,9.75
2023-03-20T18:56:40.804Z,9.95
2023-03-20T18:59:12.497Z,7.40
2023-03-20T19:01:39.679Z,7.15
2023-03-20T19:04:06.814Z,8.23
2023-03-20T19:06:34.084Z,6.80
2023-03-20T19:09:05.141Z,7.15
2023-03-20T19:11:32.375Z,8.90
2023-03-20T19:13:59.447Z,8.25
2023-03-20T19:16:33.374Z,8.73
2023-03-20T19:19:02.671Z,9.05
2023-03-20T19:21:31.542Z,8.18
2023-03-20T19:24:01.188Z,10.20
2023-03-20T19:26:29.989Z,7.53
2023-03-20T19:28:59.198Z,12.90
2023-03-20T19:31:27.078Z,12.88
2023-03-20T19:33:54.726Z,14.88
2023-03-20T19:36:22.153Z,10.35
2023-03-20T19:38:49.270Z,13.68
2023-03-20T19:41:16.284Z,10.25
2023-03-20T19:43:52.501Z,10.98
2023-03-20T19:46:38.086Z,10.35
2023-03-20T19:49:06.634Z,8.02
2023-03-20T19:51:33.920Z,13.70
2023-03-20T19:54:01.013Z,9.88
2023-03-20T19:56:28.040Z,12.00
2023-03-20T19:58:55.034Z,11.85
2023-03-20T20:01:24.978Z,10.75
2023-03-20T20:03:57.803Z,9.80
2023-03-20T20:06:31.272Z,11.55
2023-03-20T20:08:59.335Z,12.27
2023-03-20T20:11:26.366Z,8.23
2023-03-20T20:14:10.397Z,11.52
2023-03-20T20:16:42.567Z,9.95
2023-03-20T20:19:09.753Z,8.40
2023-03-20T20:24:23.747Z,9.80
2023-03-20T20:26:59.680Z,10.00
2023-03-20T20:29:34.507Z,8.07
2023-03-20T20:32:01.987Z,7.82
2023-03-20T20:40:05.128Z,9.05
2023-03-20T20:42:32.287Z,9.80
2023-03-20T20:44:59.345Z,7.88
2023-03-20T20:47:26.322Z,11.55
2023-03-20T20:49:53.877Z,11.55
2023-03-20T20:52:21.172Z,9.07
2023-03-20T20:54:48.363Z,13.00
2023-03-20T20:57:15.931Z,7.10
2023-03-20T20:59:42.862Z,9.27
2023-03-20T21:02:11.751Z,12.07
2023-03-20T21:04:43.030Z,8.93
2023-03-20T21:07:12.087Z,10.27
2023-03-20T21:09:40.535Z,9.98
2023-03-20T21:12:10.594Z,8.85
2023-03-20T21:14:38.073Z,9.63
2023-03-20T21:17:06.587Z,10.82
2023-03-20T21:19:37.278Z,8.02
2023-03-20T21:22:06.295Z,10.93
2023-03-20T21:24:35.232Z,9.85
2023-03-20T21:27:05.229Z,7.90
2023-03-20T21:29:32.227Z,8.93
2023-03-20T21:31:59.197Z,8.77
2023-03-20T21:34:26.728Z,9.05
2023-03-20T21:36:53.753Z,6.78
2023-03-20T21:39:21.081Z,8.55
2023-03-20T21:41:48.121Z,11.77
2023-03-20T21:44:24.661Z,6.65
2023-03-20T21:50:45.938Z,8.60
2023-03-20T21:53:19.536Z,8.52
2023-03-20T22:01:41.948Z,9.93
2023-03-20T22:04:45.197Z,8.48
2023-03-20T22:12:56.000Z,9.82
2023-03-20T22:15:33.934Z,11.15
2023-03-20T22:21:15.949Z,11.02
2023-03-20T22:29:40.924Z,10.25
2023-03-20T22:32:33.076Z,9.68
2023-03-20T22:35:22.559Z,8.05
2023-03-20T22:38:06.122Z,12.32
2023-03-20T22:45:52.651Z,7.95
2023-03-20T22:48:21.847Z,8.93
2023-03-20T22:50:50.053Z,10.25
2023-03-20T22:53:18.417Z,9.52
2023-03-20T22:55:46.930Z,7.38
2023-03-20T22:58:14.851Z,7.80
2023-03-20T23:00:42.949Z,9.95
2023-03-20T23:03:25.730Z,8.05
2023-03-20T23:05:57.331Z,13.07
2023-03-20T23:08:24.751Z,7.80
2023-03-20T23:10:52.098Z,8.13
2023-03-20T23:13:20.514Z,6.40
2023-03-20T23:15:48.671Z,6.32
2023-03-20T23:18:15.828Z,7.43
2023-03-20T23:20:42.872Z,7.38
2023-03-20T23:23:10.003Z,8.02
2023-03-20T23:25:39.572Z,7.40
2023-03-20T23:28:08.884Z,7.03
2023-03-20T23:31:07.559Z,7.72
2023-03-20T23:33:23.542Z,8.73
2023-03-20T23:36:01.301Z,6.50
2023-03-20T23:38:32.308Z,7.63
2023-03-20T23:40:59.264Z,8.82
2023-03-20T23:43:26.452Z,9.20
2023-03-20T23:45:53.656Z,8.30
2023-03-20T23:48:21.010Z,7.07
2023-03-20T23:50:53.159Z,6.68
2023-03-20T23:53:21.313Z,7.05
2023-03-20T23:55:52.107Z,7.70
2023-03-20T23:58:19.888Z,6.13
